EDLP/PAD METAR and TAF weather

Enter ICAO airport designator
Station Type Date Time Source
EDLP METAR 2020/03/31 13:20 UTC NOAA

EDLP 311320Z 06005KT 010V090 CAVOK 05/M07 Q1029


Station Type Date Time Source
EDLP Decoded METAR 2020/03/31 13:20 UTC NOAA

Paderborn / Lippstadt, Germany (EDLP) 51-37N 008-37E
Mar 31, 2020 - 09:20 AM EDT / 2020.03.31 1320 UTC
Wind: from the ENE (060 degrees) at 6 MPH (5 KT) (direction variable):0
Visibility: greater than 7 mile(s):0
Temperature: 41 F (5 C)
Dew Point: 19 F (-7 C)
Relative Humidity: 41%
Pressure (altimeter): 30.39 in. Hg (1029 hPa)
ob: EDLP 311320Z 06005KT 010V090 CAVOK 05/M07 Q1029
cycle: 13

Station Type Date Time Source
EDLP TAF 2020/03/31 12:27 UTC NOAA

TAF EDLP 311100Z 3112/0112 06008KT 9999 FEW040
BECMG 3119/3122 16005KT
BECMG 0107/0110 28005KT

Example: see airport list